Time;durP1;ratioP1;P1;durP2;ratioP2;P2;SDS_P1;SDS_P2;PMS_P1;PMS_P2;Temp;Humidity;BMP_temperature;BMP_pressure;BME280_temperature;BME280_humidity;BME280_pressure;Samples;Min_cycle;Max_cycle;Signal;HPM_P1;HPM_P2
2021/12/24 00:00:03;;;;;;;;;;;6.80;99.90;;;;;;5091707;28;19927;-68
2021/12/24 00:02:31;;;;;;;;;;;6.80;99.90;;;;;;5083977;28;19920;-68
2021/12/24 00:04:58;;;;;;;;;;;6.80;99.90;;;;;;5084682;28;19920;-68
2021/12/24 00:07:24;;;;;;;;;;;6.80;99.90;;;;;;5085205;28;20111;-68
2021/12/24 00:09:51;;;;;;;;;;;6.80;99.90;;;;;;5084953;28;19921;-68
2021/12/24 00:12:20;;;;;;;;;;;6.80;99.90;;;;;;5103175;28;19920;-68
2021/12/24 00:14:51;;;;;;;;;;;6.80;99.90;;;;;;5105077;28;19928;-69
2021/12/24 00:17:23;;;;;;;;;;;6.80;99.90;;;;;;5104340;28;19923;-68
2021/12/24 00:20:05;;;;;;;;;;;6.80;99.90;;;;;;5105119;28;19924;-68
2021/12/24 00:22:47;;;;;;;;;;;6.90;99.90;;;;;;5088613;28;19924;-68
2021/12/24 00:36:14;;;;;;;;;;;7.00;99.90;;;;;;5058822;28;19923;-68
2021/12/24 00:38:40;;;;;;;;;;;7.00;99.90;;;;;;5082362;28;19920;-69
2021/12/24 00:41:07;;;;;;;;;;;7.10;99.90;;;;;;5095517;28;19921;-68
2021/12/24 00:43:34;;;;;;;;;;;7.10;99.90;;;;;;5084906;28;19966;-69
2021/12/24 00:46:00;;;;;;;;;;;7.10;99.90;;;;;;5104449;28;19920;-69
2021/12/24 00:48:27;;;;;;;;;;;7.10;99.90;;;;;;5104424;28;20234;-68
2021/12/24 00:51:07;;;;;;;;;;;7.10;99.90;;;;;;5104434;28;19926;-68
2021/12/24 00:56:19;;;;;;;;;;;7.20;99.90;;;;;;5104405;28;19974;-68
2021/12/24 00:58:47;;;;;;;;;;;7.20;99.90;;;;;;5104605;28;19926;-68
2021/12/24 01:01:14;;;;;;;;;;;7.30;99.90;;;;;;5103507;28;19944;-69
2021/12/24 01:03:41;;;;;;;;;;;7.20;99.90;;;;;;5103748;28;20229;-68
2021/12/24 01:06:07;;;;;;;;;;;7.20;99.90;;;;;;5104295;28;19921;-68
2021/12/24 01:08:35;;;;;;;;;;;7.20;99.90;;;;;;5103688;28;19919;-68
2021/12/24 01:11:04;;;;;;;;;;;7.20;99.90;;;;;;5103906;28;19920;-68
2021/12/24 01:13:31;;;;;;;;;;;7.10;99.90;;;;;;5103369;28;19927;-68
2021/12/24 01:16:01;;;;;;;;;;;7.10;99.90;;;;;;5097291;28;19927;-68
2021/12/24 01:18:36;;;;;;;;;;;7.10;99.90;;;;;;5083406;28;20227;-68
2021/12/24 01:21:18;;;;;;;;;;;7.10;99.90;;;;;;5083049;28;19921;-68
2021/12/24 01:23:49;;;;;;;;;;;7.10;99.90;;;;;;5083188;28;19952;-68
2021/12/24 01:26:21;;;;;;;;;;;7.10;99.90;;;;;;5083827;28;19926;-68
2021/12/24 01:29:06;;;;;;;;;;;7.10;99.90;;;;;;5083928;28;19957;-68
2021/12/24 01:40:06;;;;;;;;;;;7.10;99.90;;;;;;5094548;28;19927;-68
2021/12/24 01:42:43;;;;;;;;;;;7.10;99.90;;;;;;5100008;28;19920;-68
2021/12/24 01:45:13;;;;;;;;;;;7.20;99.90;;;;;;5102260;28;20264;-68
2021/12/24 01:47:40;;;;;;;;;;;7.10;99.90;;;;;;5103836;28;19923;-68
2021/12/24 01:50:07;;;;;;;;;;;7.20;99.90;;;;;;5103803;28;19920;-68
2021/12/24 01:52:34;;;;;;;;;;;7.20;99.90;;;;;;5085072;28;19925;-68
2021/12/24 01:55:02;;;;;;;;;;;7.20;99.90;;;;;;5086565;28;20246;-69
2021/12/24 01:57:30;;;;;;;;;;;7.30;99.90;;;;;;5083093;28;19926;-68
2021/12/24 01:59:57;;;;;;;;;;;7.30;99.90;;;;;;5082573;28;19943;-68
2021/12/24 02:02:24;;;;;;;;;;;7.40;99.90;;;;;;5082702;28;19920;-69
2021/12/24 02:04:50;;;;;;;;;;;7.40;99.90;;;;;;5083115;28;19926;-68
2021/12/24 02:07:17;;;;;;;;;;;7.50;99.90;;;;;;5083509;28;20119;-68
2021/12/24 02:09:43;;;;;;;;;;;7.50;99.90;;;;;;5083418;28;20097;-67
2021/12/24 02:12:14;;;;;;;;;;;7.50;99.90;;;;;;5086999;28;19952;-68
2021/12/24 02:14:43;;;;;;;;;;;7.50;99.90;;;;;;5083055;28;19926;-68
2021/12/24 02:17:31;;;;;;;;;;;7.40;99.90;;;;;;5082514;28;19970;-68
2021/12/24 02:28:25;;;;;;;;;;;7.60;99.90;;;;;;5086964;28;19930;-67
2021/12/24 02:30:52;;;;;;;;;;;7.60;99.90;;;;;;5085796;28;19943;-68
2021/12/24 02:33:18;;;;;;;;;;;7.70;99.90;;;;;;5086995;28;19927;-68
2021/12/24 02:35:46;;;;;;;;;;;7.70;99.90;;;;;;5097154;28;19920;-68
2021/12/24 02:38:13;;;;;;;;;;;7.70;99.90;;;;;;5107108;28;19926;-67
2021/12/24 02:40:40;;;;;;;;;;;7.70;99.90;;;;;;5105094;28;19927;-68
2021/12/24 02:43:12;;;;;;;;;;;7.70;99.90;;;;;;5086845;28;19920;-68
2021/12/24 02:45:40;;;;;;;;;;;7.70;99.90;;;;;;5086073;28;19928;-68
2021/12/24 02:48:34;;;;;;;;;;;7.70;99.90;;;;;;5086829;28;19921;-68
2021/12/24 02:53:58;;;;;;;;;;;7.80;99.90;;;;;;5085848;28;19927;-68
2021/12/24 02:56:28;;;;;;;;;;;7.90;99.90;;;;;;5086298;28;20231;-68
2021/12/24 02:58:55;;;;;;;;;;;7.90;99.90;;;;;;5086403;28;19927;-69
2021/12/24 03:01:24;;;;;;;;;;;7.90;99.90;;;;;;5085152;28;19921;-68
2021/12/24 03:03:51;;;;;;;;;;;8.00;99.90;;;;;;5085970;28;19920;-68
2021/12/24 03:06:20;;;;;;;;;;;8.00;99.90;;;;;;5086374;28;19920;-67
2021/12/24 03:08:48;;;;;;;;;;;8.00;99.90;;;;;;5085872;28;19920;-68
2021/12/24 03:11:15;;;;;;;;;;;8.00;99.90;;;;;;5092259;28;19958;-68
2021/12/24 03:13:42;;;;;;;;;;;8.00;99.90;;;;;;5087609;28;19921;-68
2021/12/24 03:16:09;;;;;;;;;;;8.10;99.90;;;;;;5106474;28;19986;-68
2021/12/24 03:18:38;;;;;;;;;;;8.10;99.90;;;;;;5095672;28;19920;-68
2021/12/24 03:21:09;;;;;;;;;;;8.10;99.90;;;;;;5100369;28;19945;-68
2021/12/24 03:23:40;;;;;;;;;;;8.10;99.90;;;;;;5105169;28;19920;-71
2021/12/24 03:26:08;;;;;;;;;;;8.10;99.90;;;;;;5085777;28;19970;-68
2021/12/24 03:28:34;;;;;;;;;;;8.10;99.90;;;;;;5085673;28;20235;-67
2021/12/24 03:31:02;;;;;;;;;;;8.10;99.90;;;;;;5084980;28;19921;-68
2021/12/24 03:33:28;;;;;;;;;;;8.10;99.90;;;;;;5085554;28;19921;-68
2021/12/24 03:35:55;;;;;;;;;;;8.10;99.90;;;;;;5105569;28;19926;-68
2021/12/24 03:38:22;;;;;;;;;;;8.10;99.90;;;;;;5105916;28;19924;-68
2021/12/24 03:40:49;;;;;;;;;;;8.10;99.90;;;;;;5105021;28;19994;-67
2021/12/24 03:43:16;;;;;;;;;;;8.00;99.90;;;;;;5105928;28;19927;-68
2021/12/24 03:45:49;;;;;;;;;;;8.00;99.90;;;;;;5105522;28;19926;-69
2021/12/24 03:48:20;;;;;;;;;;;8.00;99.90;;;;;;5099545;28;19924;-69
2021/12/24 03:50:55;;;;;;;;;;;8.00;99.90;;;;;;5098193;28;19920;-68
2021/12/24 03:56:07;;;;;;;;;;;8.00;99.90;;;;;;5100614;28;19955;-68
2021/12/24 03:58:33;;;;;;;;;;;7.90;99.90;;;;;;5084808;28;19920;-69
2021/12/24 04:01:00;;;;;;;;;;;8.00;99.90;;;;;;5085142;28;19928;-68
2021/12/24 04:03:27;;;;;;;;;;;8.00;99.90;;;;;;5085242;28;19921;-68
2021/12/24 04:05:53;;;;;;;;;;;8.00;99.90;;;;;;5103062;28;19920;-68
2021/12/24 04:08:20;;;;;;;;;;;8.00;99.90;;;;;;5105332;28;19927;-68
2021/12/24 04:10:47;;;;;;;;;;;8.00;99.90;;;;;;5105086;28;19920;-68
2021/12/24 04:13:15;;;;;;;;;;;8.00;99.90;;;;;;5105308;28;19920;-68
2021/12/24 04:15:42;;;;;;;;;;;8.00;99.90;;;;;;5104979;28;19927;-68
2021/12/24 04:18:15;;;;;;;;;;;8.00;99.90;;;;;;5104856;28;19919;-68
2021/12/24 04:26:11;;;;;;;;;;;8.00;99.90;;;;;;5105197;28;19966;-68
2021/12/24 04:28:39;;;;;;;;;;;8.10;99.90;;;;;;5105105;28;19924;-68
2021/12/24 04:31:05;;;;;;;;;;;8.10;99.90;;;;;;5084729;28;19924;-67
2021/12/24 04:33:35;;;;;;;;;;;8.00;99.90;;;;;;5084540;28;19920;-69
2021/12/24 04:36:16;;;;;;;;;;;8.00;99.90;;;;;;5096979;28;20227;-67
2021/12/24 04:39:06;;;;;;;;;;;8.00;99.90;;;;;;5104526;28;19966;-69
2021/12/24 04:52:58;;;;;;;;;;;7.80;99.90;;;;;;5103694;28;19958;-68
2021/12/24 05:01:21;;;;;;;;;;;7.60;99.90;;;;;;5062083;28;20209;-67
2021/12/24 05:03:48;;;;;;;;;;;7.50;99.90;;;;;;5099718;22;19924;-71
2021/12/24 05:06:27;;;;;;;;;;;7.40;99.90;;;;;;5114584;28;20152;-70
2021/12/24 05:08:56;;;;;;;;;;;7.40;99.90;;;;;;5124515;28;20337;-70
2021/12/24 05:11:23;;;;;;;;;;;7.40;99.90;;;;;;5108420;28;19928;-70
2021/12/24 05:13:50;;;;;;;;;;;7.30;99.90;;;;;;5124130;28;19919;-70
2021/12/24 05:16:23;;;;;;;;;;;7.40;99.90;;;;;;5123164;28;19926;-70
2021/12/24 05:21:43;;;;;;;;;;;7.30;99.90;;;;;;5067425;28;19916;-70
2021/12/24 05:24:12;;;;;;;;;;;7.30;99.90;;;;;;5103819;28;19983;-69
2021/12/24 05:26:39;;;;;;;;;;;7.20;99.90;;;;;;5104080;28;19920;-70
2021/12/24 05:29:06;;;;;;;;;;;7.30;99.90;;;;;;5104081;28;20207;-70
2021/12/24 05:31:34;;;;;;;;;;;7.20;99.90;;;;;;5104044;28;20114;-70
2021/12/24 05:34:01;;;;;;;;;;;7.20;99.90;;;;;;5103793;28;19942;-70
2021/12/24 05:36:28;;;;;;;;;;;7.20;99.90;;;;;;5104259;28;19943;-70
2021/12/24 05:38:56;;;;;;;;;;;7.10;99.90;;;;;;5103665;28;19920;-70
2021/12/24 05:41:22;;;;;;;;;;;7.20;99.90;;;;;;5103969;28;19920;-70
2021/12/24 05:43:49;;;;;;;;;;;7.10;99.90;;;;;;5103471;28;19979;-71
2021/12/24 05:46:16;;;;;;;;;;;7.10;99.90;;;;;;5103881;28;20092;-71
2021/12/24 05:48:44;;;;;;;;;;;7.10;99.90;;;;;;5103920;28;19920;-70
2021/12/24 05:51:11;;;;;;;;;;;7.10;99.90;;;;;;5103998;28;19942;-71
2021/12/24 05:53:38;;;;;;;;;;;7.10;99.90;;;;;;5103549;28;19934;-70
2021/12/24 05:56:05;;;;;;;;;;;7.10;99.90;;;;;;5103482;28;19926;-71
2021/12/24 05:58:31;;;;;;;;;;;7.10;99.90;;;;;;5103570;28;19927;-71
2021/12/24 06:00:58;;;;;;;;;;;7.20;99.90;;;;;;5104700;28;19920;-71
2021/12/24 06:03:25;;;;;;;;;;;7.20;99.90;;;;;;5107470;28;19926;-71
2021/12/24 06:05:53;;;;;;;;;;;7.20;99.90;;;;;;5107772;28;19926;-72
2021/12/24 06:08:19;;;;;;;;;;;7.20;99.90;;;;;;5107660;28;19985;-70
2021/12/24 06:10:46;;;;;;;;;;;7.20;99.90;;;;;;5107834;28;19920;-71
2021/12/24 06:13:12;;;;;;;;;;;7.30;99.90;;;;;;5107795;28;19926;-71
2021/12/24 06:15:44;;;;;;;;;;;7.30;99.90;;;;;;5107153;28;19920;-71
2021/12/24 06:18:19;;;;;;;;;;;7.30;99.90;;;;;;5107426;28;20119;-70
2021/12/24 06:20:46;;;;;;;;;;;7.30;99.90;;;;;;5107219;28;19920;-71
2021/12/24 06:23:14;;;;;;;;;;;7.40;99.90;;;;;;5107218;28;19927;-71
2021/12/24 06:25:40;;;;;;;;;;;7.40;99.90;;;;;;5107029;28;19991;-71
2021/12/24 06:28:13;;;;;;;;;;;7.40;99.90;;;;;;5107046;28;19920;-70
2021/12/24 06:30:41;;;;;;;;;;;7.40;99.90;;;;;;5107204;28;19920;-71
2021/12/24 06:33:08;;;;;;;;;;;7.40;99.90;;;;;;5107118;28;19983;-70
2021/12/24 06:35:35;;;;;;;;;;;7.40;99.90;;;;;;5106498;28;19930;-70
2021/12/24 06:38:02;;;;;;;;;;;7.40;99.90;;;;;;5107360;28;20111;-70
2021/12/24 06:40:30;;;;;;;;;;;7.40;99.90;;;;;;5106860;28;19920;-70
2021/12/24 06:42:56;;;;;;;;;;;7.40;99.90;;;;;;5107326;28;19927;-71
2021/12/24 06:45:24;;;;;;;;;;;7.40;99.90;;;;;;5106872;28;19920;-71
2021/12/24 06:47:51;;;;;;;;;;;7.50;99.90;;;;;;5107049;28;19987;-70
2021/12/24 06:50:18;;;;;;;;;;;7.40;99.90;;;;;;5107092;28;19920;-71
2021/12/24 06:52:44;;;;;;;;;;;7.50;99.90;;;;;;5107029;28;19920;-69
2021/12/24 06:55:11;;;;;;;;;;;7.40;99.90;;;;;;5106505;28;19926;-69
2021/12/24 06:57:40;;;;;;;;;;;7.50;99.90;;;;;;5106863;28;19955;-69
2021/12/24 07:00:08;;;;;;;;;;;7.50;99.90;;;;;;5107023;28;19920;-69
2021/12/24 07:02:34;;;;;;;;;;;7.50;99.90;;;;;;5106547;28;19942;-69
2021/12/24 07:05:01;;;;;;;;;;;7.50;99.90;;;;;;5106356;28;19920;-69
2021/12/24 07:07:27;;;;;;;;;;;7.40;99.90;;;;;;5106791;28;19931;-70
2021/12/24 07:09:54;;;;;;;;;;;7.50;99.90;;;;;;5106487;28;19920;-70
2021/12/24 07:12:21;;;;;;;;;;;7.50;99.90;;;;;;5105928;28;19924;-69
2021/12/24 07:14:49;;;;;;;;;;;7.50;99.90;;;;;;5106379;28;19920;-69
2021/12/24 07:17:16;;;;;;;;;;;7.50;99.90;;;;;;5096881;28;19985;-70
2021/12/24 07:19:42;;;;;;;;;;;7.50;99.90;;;;;;5100788;28;19934;-70
2021/12/24 07:22:09;;;;;;;;;;;7.50;99.90;;;;;;5100914;28;19987;-70
2021/12/24 07:24:36;;;;;;;;;;;7.40;99.90;;;;;;5101299;28;19928;-70
2021/12/24 07:27:03;;;;;;;;;;;7.50;99.90;;;;;;5101795;28;20306;-69
2021/12/24 07:29:30;;;;;;;;;;;7.50;99.90;;;;;;5102054;28;19920;-70
2021/12/24 07:31:58;;;;;;;;;;;7.50;99.90;;;;;;5106117;28;20114;-69
2021/12/24 07:34:24;;;;;;;;;;;7.50;99.90;;;;;;5104356;28;19920;-70
2021/12/24 07:36:51;;;;;;;;;;;7.60;99.90;;;;;;5106189;28;19920;-70
2021/12/24 07:39:18;;;;;;;;;;;7.60;99.90;;;;;;5105824;28;19998;-70
2021/12/24 07:41:44;;;;;;;;;;;7.60;99.90;;;;;;5106077;28;19920;-70
2021/12/24 07:44:11;;;;;;;;;;;7.60;99.90;;;;;;5105357;28;19926;-70
2021/12/24 07:46:43;;;;;;;;;;;7.50;99.90;;;;;;5106084;28;19927;-71
2021/12/24 07:49:30;;;;;;;;;;;7.50;99.90;;;;;;5105444;28;20114;-70
2021/12/24 07:52:08;;;;;;;;;;;7.60;99.90;;;;;;5105676;28;19927;-70
2021/12/24 07:54:36;;;;;;;;;;;7.60;99.90;;;;;;5105278;28;19916;-71
2021/12/24 07:57:03;;;;;;;;;;;7.50;99.90;;;;;;5105891;28;19926;-70
2021/12/24 07:59:30;;;;;;;;;;;7.60;99.90;;;;;;5105506;28;19924;-70
2021/12/24 08:01:57;;;;;;;;;;;7.60;99.90;;;;;;5105426;28;19920;-70
2021/12/24 08:04:25;;;;;;;;;;;7.50;99.90;;;;;;5104958;28;19920;-70
2021/12/24 08:06:52;;;;;;;;;;;7.50;99.90;;;;;;5105677;28;19942;-70
2021/12/24 08:09:19;;;;;;;;;;;7.50;99.90;;;;;;5105497;28;19935;-70
2021/12/24 08:11:45;;;;;;;;;;;7.60;99.90;;;;;;5104952;28;19934;-70
2021/12/24 08:14:12;;;;;;;;;;;7.50;99.90;;;;;;5104451;28;19935;-70
2021/12/24 08:16:39;;;;;;;;;;;7.50;99.90;;;;;;5104969;28;19920;-71
2021/12/24 08:19:05;;;;;;;;;;;7.50;99.90;;;;;;5104672;28;19932;-71
2021/12/24 08:21:33;;;;;;;;;;;7.50;99.90;;;;;;5104943;28;19920;-70
2021/12/24 08:24:00;;;;;;;;;;;7.50;99.90;;;;;;5103869;28;20096;-70
2021/12/24 08:26:29;;;;;;;;;;;7.50;99.90;;;;;;5105035;28;20207;-70
2021/12/24 08:28:55;;;;;;;;;;;7.40;99.90;;;;;;5105518;28;19927;-71
2021/12/24 08:31:22;;;;;;;;;;;7.50;99.90;;;;;;5105395;28;19926;-70
2021/12/24 08:33:48;;;;;;;;;;;7.50;99.90;;;;;;5105057;28;19920;-70
2021/12/24 08:36:15;;;;;;;;;;;7.50;99.90;;;;;;5105319;28;19920;-70
2021/12/24 08:38:43;;;;;;;;;;;7.50;99.90;;;;;;5105319;28;20122;-71
2021/12/24 08:41:10;;;;;;;;;;;7.50;99.90;;;;;;5105092;28;19920;-70
2021/12/24 08:43:36;;;;;;;;;;;7.50;99.90;;;;;;5104897;28;19920;-70
2021/12/24 08:46:03;;;;;;;;;;;7.50;99.90;;;;;;5105023;28;19979;-71
2021/12/24 08:48:29;;;;;;;;;;;7.50;99.90;;;;;;5105089;28;19955;-71
2021/12/24 08:50:56;;;;;;;;;;;7.50;99.90;;;;;;5104720;28;19920;-71
2021/12/24 08:53:23;;;;;;;;;;;7.50;99.90;;;;;;5105059;28;19920;-71
2021/12/24 08:55:51;;;;;;;;;;;7.60;99.90;;;;;;5104388;28;20207;-71
2021/12/24 08:58:19;;;;;;;;;;;7.50;99.90;;;;;;5104999;28;19926;-71
2021/12/24 09:00:46;;;;;;;;;;;7.50;99.90;;;;;;5104741;28;19920;-70
2021/12/24 09:03:12;;;;;;;;;;;7.50;99.90;;;;;;5104538;28;19982;-70
2021/12/24 09:05:39;;;;;;;;;;;7.50;99.90;;;;;;5104311;28;20223;-70
2021/12/24 09:08:06;;;;;;;;;;;7.50;99.90;;;;;;5104424;28;19951;-70
2021/12/24 09:10:32;;;;;;;;;;;7.50;99.90;;;;;;5104788;28;20245;-70
2021/12/24 09:13:00;;;;;;;;;;;7.50;99.90;;;;;;5104687;28;19924;-70
2021/12/24 09:15:30;;;;;;;;;;;7.50;99.90;;;;;;5104287;28;19920;-67
2021/12/24 09:17:56;;;;;;;;;;;7.50;99.90;;;;;;5104333;28;20024;-68
2021/12/24 09:20:29;;;;;;;;;;;7.50;99.90;;;;;;5104329;28;19920;-67
2021/12/24 09:22:55;;;;;;;;;;;7.50;99.90;;;;;;5104163;28;19920;-67
2021/12/24 09:25:23;;;;;;;;;;;7.50;99.90;;;;;;5103027;28;19979;-67
2021/12/24 09:27:49;;;;;;;;;;;7.50;99.90;;;;;;5103745;28;19923;-68
2021/12/24 09:30:17;;;;;;;;;;;7.50;99.90;;;;;;5103890;28;19920;-68
2021/12/24 09:32:44;;;;;;;;;;;7.50;99.90;;;;;;5103576;28;19927;-68
2021/12/24 09:35:11;;;;;;;;;;;7.50;99.90;;;;;;5103577;28;20103;-67
2021/12/24 09:37:38;;;;;;;;;;;7.50;99.90;;;;;;5103635;28;19924;-67
2021/12/24 09:40:05;;;;;;;;;;;7.40;99.90;;;;;;5103776;28;19927;-67
2021/12/24 09:42:32;;;;;;;;;;;7.50;99.90;;;;;;5083690;28;19921;-68
2021/12/24 09:44:59;;;;;;;;;;;7.50;99.90;;;;;;5083452;28;20108;-67
2021/12/24 09:47:27;;;;;;;;;;;7.50;99.90;;;;;;5083342;28;19921;-69
2021/12/24 09:49:53;;;;;;;;;;;7.50;99.90;;;;;;5083655;28;19921;-68
2021/12/24 09:52:21;;;;;;;;;;;7.50;99.90;;;;;;5083786;28;19920;-67
2021/12/24 09:54:48;;;;;;;;;;;7.50;99.90;;;;;;5083054;28;20366;-67
2021/12/24 09:57:15;;;;;;;;;;;7.50;99.90;;;;;;5084059;28;20212;-67
2021/12/24 09:59:42;;;;;;;;;;;7.50;99.90;;;;;;5103457;28;19983;-67
2021/12/24 10:02:15;;;;;;;;;;;7.50;99.90;;;;;;5103705;28;19927;-70
2021/12/24 10:04:43;;;;;;;;;;;7.40;99.90;;;;;;5101744;28;19927;-67
2021/12/24 10:07:11;;;;;;;;;;;7.50;99.90;;;;;;5102127;28;19924;-68
2021/12/24 10:09:39;;;;;;;;;;;7.50;99.90;;;;;;5100126;28;19979;-69
2021/12/24 10:12:07;;;;;;;;;;;7.50;99.90;;;;;;5103754;28;20119;-68
2021/12/24 10:14:35;;;;;;;;;;;7.50;99.90;;;;;;5097715;28;19986;-68
2021/12/24 10:17:01;;;;;;;;;;;7.50;99.90;;;;;;5103088;28;19966;-68
2021/12/24 10:19:28;;;;;;;;;;;7.40;99.90;;;;;;5098295;28;20163;-67
2021/12/24 10:22:00;;;;;;;;;;;7.40;99.90;;;;;;5093144;28;19925;-68
2021/12/24 10:24:27;;;;;;;;;;;7.40;99.90;;;;;;5086945;28;19920;-69
2021/12/24 10:26:54;;;;;;;;;;;7.30;99.90;;;;;;5102667;28;20212;-68
2021/12/24 10:29:28;;;;;;;;;;;7.40;99.90;;;;;;5103085;28;19920;-68
2021/12/24 10:31:55;;;;;;;;;;;7.40;99.90;;;;;;5102670;28;19920;-67
2021/12/24 10:34:24;;;;;;;;;;;7.40;99.90;;;;;;5102085;28;19928;-67
2021/12/24 10:37:03;;;;;;;;;;;7.40;99.90;;;;;;5101406;28;19926;-68
2021/12/24 10:39:31;;;;;;;;;;;7.40;99.90;;;;;;5092888;28;19932;-68
2021/12/24 10:41:58;;;;;;;;;;;7.40;99.90;;;;;;5099348;28;20159;-68
2021/12/24 10:44:26;;;;;;;;;;;7.30;99.90;;;;;;5102691;28;19927;-68
2021/12/24 10:47:10;;;;;;;;;;;7.40;99.90;;;;;;5103646;28;19987;-68
2021/12/24 10:52:59;;;;;;;;;;;7.40;99.90;;;;;;5091766;28;19916;-68
2021/12/24 10:55:26;;;;;;;;;;;7.40;99.90;;;;;;5105907;28;19966;-68
2021/12/24 10:57:54;;;;;;;;;;;7.40;99.90;;;;;;5106271;28;19926;-68
2021/12/24 11:00:24;;;;;;;;;;;7.40;99.90;;;;;;5085941;28;20178;-67
2021/12/24 11:02:53;;;;;;;;;;;7.40;99.90;;;;;;5093967;28;19926;-67
2021/12/24 11:05:27;;;;;;;;;;;7.40;99.90;;;;;;5105981;28;19928;-68
2021/12/24 11:07:55;;;;;;;;;;;7.40;99.90;;;;;;5102955;28;19924;-67
2021/12/24 11:10:22;;;;;;;;;;;7.50;99.90;;;;;;5095718;28;19920;-68
2021/12/24 11:12:50;;;;;;;;;;;7.40;99.90;;;;;;5044262;22;19922;-70
2021/12/24 11:15:27;;;;;;;;;;;7.40;99.90;;;;;;5014313;28;19929;-70
2021/12/24 11:17:57;;;;;;;;;;;7.40;99.90;;;;;;5006850;28;19922;-70
2021/12/24 11:20:24;;;;;;;;;;;7.40;99.90;;;;;;5018107;28;20231;-70
2021/12/24 11:22:53;;;;;;;;;;;7.40;99.90;;;;;;4995247;28;19921;-70
2021/12/24 11:25:21;;;;;;;;;;;7.40;99.90;;;;;;4990588;28;19929;-70
2021/12/24 11:27:48;;;;;;;;;;;7.30;99.90;;;;;;4999480;28;19921;-70
2021/12/24 11:30:15;;;;;;;;;;;7.40;99.90;;;;;;4986861;28;19928;-71
2021/12/24 11:32:43;;;;;;;;;;;7.30;99.90;;;;;;4996677;28;19938;-70
2021/12/24 11:35:10;;;;;;;;;;;7.30;99.90;;;;;;4984555;28;19922;-73
2021/12/24 11:37:37;;;;;;;;;;;7.30;99.90;;;;;;4999853;28;19928;-70
2021/12/24 11:40:05;;;;;;;;;;;7.30;99.90;;;;;;4991790;28;19968;-70
2021/12/24 11:42:38;;;;;;;;;;;7.30;99.90;;;;;;4996008;28;19928;-72
2021/12/24 11:45:05;;;;;;;;;;;7.40;99.90;;;;;;4999721;28;19922;-73
2021/12/24 11:47:32;;;;;;;;;;;7.30;99.90;;;;;;4986851;28;19928;-71
2021/12/24 11:49:59;;;;;;;;;;;7.30;99.90;;;;;;5002662;28;19937;-71
2021/12/24 11:52:27;;;;;;;;;;;7.30;99.90;;;;;;5003007;28;19960;-71
2021/12/24 11:54:54;;;;;;;;;;;7.30;99.90;;;;;;5002277;28;19922;-71
2021/12/24 11:57:22;;;;;;;;;;;7.30;99.90;;;;;;5002606;28;19922;-71
2021/12/24 11:59:50;;;;;;;;;;;7.30;99.90;;;;;;5002765;28;19922;-71
2021/12/24 12:02:34;;;;;;;;;;;7.30;99.90;;;;;;5002810;28;19922;-71
2021/12/24 12:05:11;;;;;;;;;;;7.30;99.90;;;;;;5002465;28;20210;-71
2021/12/24 12:07:38;;;;;;;;;;;7.30;99.90;;;;;;5002866;28;19928;-71
2021/12/24 12:10:04;;;;;;;;;;;7.30;99.90;;;;;;5002804;28;20117;-71
2021/12/24 12:12:32;;;;;;;;;;;7.30;99.90;;;;;;5002484;28;19928;-71
2021/12/24 12:15:14;;;;;;;;;;;7.40;99.90;;;;;;5001975;28;19922;-71
2021/12/24 12:17:51;;;;;;;;;;;7.30;99.90;;;;;;5000867;28;20155;-71
2021/12/24 12:20:35;;;;;;;;;;;7.30;99.90;;;;;;5001002;28;19921;-72
2021/12/24 12:23:02;;;;;;;;;;;7.30;99.90;;;;;;5002326;28;20011;-71
2021/12/24 12:25:33;;;;;;;;;;;7.30;99.90;;;;;;5001655;28;20121;-73
2021/12/24 12:28:00;;;;;;;;;;;7.30;99.90;;;;;;5002723;28;20109;-73
2021/12/24 12:30:29;;;;;;;;;;;7.30;99.90;;;;;;5002657;28;19922;-73
2021/12/24 12:33:05;;;;;;;;;;;7.30;99.90;;;;;;5002360;28;19929;-73
2021/12/24 12:35:37;;;;;;;;;;;7.30;99.90;;;;;;5002254;28;19929;-72
2021/12/24 12:38:03;;;;;;;;;;;7.20;99.90;;;;;;5002629;28;19928;-73
2021/12/24 12:40:33;;;;;;;;;;;7.20;99.90;;;;;;5002388;28;19922;-73
2021/12/24 12:43:08;;;;;;;;;;;7.20;99.90;;;;;;5002076;28;19968;-73
2021/12/24 12:46:05;;;;;;;;;;;7.20;99.90;;;;;;5002182;28;19957;-73
2021/12/24 12:48:49;;;;;;;;;;;7.20;99.90;;;;;;5042589;28;20214;-73
2021/12/24 12:51:19;;;;;;;;;;;7.20;99.90;;;;;;5007278;28;19922;-74
2021/12/24 12:53:47;;;;;;;;;;;7.20;99.90;;;;;;5001723;28;19936;-74
2021/12/24 12:56:16;;;;;;;;;;;7.10;99.90;;;;;;5002290;28;19930;-74
2021/12/24 12:58:45;;;;;;;;;;;7.10;99.90;;;;;;5001595;28;20623;-72
2021/12/24 13:01:14;;;;;;;;;;;7.20;99.90;;;;;;5001665;28;19921;-72
2021/12/24 13:04:00;;;;;;;;;;;7.10;99.90;;;;;;5002293;28;19922;-72
2021/12/24 13:06:47;;;;;;;;;;;7.10;99.90;;;;;;5002039;28;20251;-73
2021/12/24 13:09:16;;;;;;;;;;;7.10;99.90;;;;;;5001853;28;19921;-73
2021/12/24 13:11:44;;;;;;;;;;;7.00;99.90;;;;;;5002171;28;19925;-74
2021/12/24 13:14:11;;;;;;;;;;;7.00;99.90;;;;;;5001977;28;19922;-73
2021/12/24 13:16:44;;;;;;;;;;;7.00;99.90;;;;;;5002035;28;20231;-73
2021/12/24 13:19:32;;;;;;;;;;;7.00;99.90;;;;;;5001953;28;19949;-73
2021/12/24 13:24:48;;;;;;;;;;;7.00;99.90;;;;;;5001135;28;19944;-74
2021/12/24 13:27:15;;;;;;;;;;;7.00;99.90;;;;;;5001750;28;19944;-73
2021/12/24 13:29:42;;;;;;;;;;;7.00;99.90;;;;;;5001343;28;19981;-73
2021/12/24 13:32:08;;;;;;;;;;;7.00;99.90;;;;;;5001731;28;19928;-73
2021/12/24 13:34:36;;;;;;;;;;;7.00;99.90;;;;;;4998614;28;19926;-74
2021/12/24 13:37:10;;;;;;;;;;;7.00;99.90;;;;;;4991021;28;19922;-74
2021/12/24 13:39:45;;;;;;;;;;;7.00;99.90;;;;;;4995799;28;19933;-73
2021/12/24 13:42:11;;;;;;;;;;;6.90;99.90;;;;;;4997406;28;19922;-73
2021/12/24 13:44:38;;;;;;;;;;;6.90;99.90;;;;;;4997563;28;20113;-73
2021/12/24 13:47:11;;;;;;;;;;;7.00;99.90;;;;;;4997511;28;19951;-73
2021/12/24 13:50:00;;;;;;;;;;;7.00;99.90;;;;;;4998721;28;19943;-74
2021/12/24 13:55:23;;;;;;;;;;;7.00;99.90;;;;;;5000438;28;19997;-74
2021/12/24 13:57:54;;;;;;;;;;;7.00;99.90;;;;;;4995234;28;19930;-74
2021/12/24 14:00:21;;;;;;;;;;;7.00;99.90;;;;;;4993109;28;19929;-74
2021/12/24 14:02:52;;;;;;;;;;;7.00;99.90;;;;;;4991299;28;19922;-74
2021/12/24 14:05:19;;;;;;;;;;;7.00;99.90;;;;;;4989127;28;19922;-74
2021/12/24 14:07:47;;;;;;;;;;;7.00;99.90;;;;;;4989004;28;19965;-72
2021/12/24 14:10:21;;;;;;;;;;;7.00;99.90;;;;;;4990831;28;19929;-73
2021/12/24 14:12:47;;;;;;;;;;;6.90;99.90;;;;;;4998185;28;19985;-74
2021/12/24 14:15:20;;;;;;;;;;;6.90;99.90;;;;;;4999942;28;19922;-75
2021/12/24 14:18:06;;;;;;;;;;;6.90;99.90;;;;;;4999113;28;19922;-73
2021/12/24 14:20:59;;;;;;;;;;;7.00;99.90;;;;;;5001063;28;19922;-73
2021/12/24 14:23:21;;;;;;;;;;;7.00;99.90;;;;;;5003628;28;20209;-74
2021/12/24 14:25:54;;;;;;;;;;;6.90;99.90;;;;;;5003902;28;19928;-73
2021/12/24 14:28:22;;;;;;;;;;;6.90;99.90;;;;;;5003989;28;19922;-72
2021/12/24 14:30:48;;;;;;;;;;;6.90;99.90;;;;;;5004218;28;19922;-73
2021/12/24 14:33:15;;;;;;;;;;;6.90;99.90;;;;;;5004180;28;19989;-73
2021/12/24 14:35:44;;;;;;;;;;;6.90;99.90;;;;;;5003373;28;20228;-73
2021/12/24 14:38:15;;;;;;;;;;;6.90;99.90;;;;;;5004142;28;19922;-75
2021/12/24 14:40:43;;;;;;;;;;;6.90;99.90;;;;;;5003691;28;20240;-71
2021/12/24 14:43:10;;;;;;;;;;;7.00;99.90;;;;;;5002172;28;19928;-73
2021/12/24 14:45:39;;;;;;;;;;;7.00;99.90;;;;;;5003178;28;19922;-73
2021/12/24 14:48:07;;;;;;;;;;;7.00;99.90;;;;;;5003537;28;19922;-72
2021/12/24 14:50:34;;;;;;;;;;;7.00;99.90;;;;;;5003640;28;19982;-72
2021/12/24 14:53:08;;;;;;;;;;;7.00;99.90;;;;;;5003926;28;19922;-73
2021/12/24 14:55:39;;;;;;;;;;;7.00;99.90;;;;;;5003803;28;19922;-72
2021/12/24 14:58:07;;;;;;;;;;;7.00;99.90;;;;;;5003647;28;20216;-72
2021/12/24 15:00:36;;;;;;;;;;;7.00;99.90;;;;;;5003761;28;19922;-72
2021/12/24 15:03:05;;;;;;;;;;;7.00;99.90;;;;;;5003599;28;19928;-73
2021/12/24 15:05:33;;;;;;;;;;;7.00;99.90;;;;;;5003609;28;19926;-72
2021/12/24 15:08:01;;;;;;;;;;;7.00;99.90;;;;;;5003522;28;19921;-73
2021/12/24 15:10:28;;;;;;;;;;;7.00;99.90;;;;;;5003833;28;19936;-73
2021/12/24 15:13:02;;;;;;;;;;;7.00;99.90;;;;;;5004841;28;19968;-72
2021/12/24 15:15:31;;;;;;;;;;;7.00;99.90;;;;;;5003064;28;19944;-76
2021/12/24 15:17:57;;;;;;;;;;;7.00;99.90;;;;;;5003839;28;19963;-72
2021/12/24 15:20:27;;;;;;;;;;;7.00;99.90;;;;;;5003021;28;19922;-76
2021/12/24 15:22:53;;;;;;;;;;;7.00;99.90;;;;;;5003301;28;19960;-73
2021/12/24 15:25:21;;;;;;;;;;;7.00;99.90;;;;;;5003269;28;20205;-73
2021/12/24 15:27:49;;;;;;;;;;;7.00;99.90;;;;;;5000438;28;20147;-73
2021/12/24 15:30:16;;;;;;;;;;;7.00;99.90;;;;;;5001674;28;19921;-75
2021/12/24 15:32:43;;;;;;;;;;;7.00;99.90;;;;;;5003166;28;20221;-75
2021/12/24 15:35:10;;;;;;;;;;;7.00;99.90;;;;;;5003397;28;19922;-75
2021/12/24 15:37:37;;;;;;;;;;;7.00;99.90;;;;;;5003236;28;20209;-75
2021/12/24 15:40:04;;;;;;;;;;;7.00;99.90;;;;;;5003640;28;19922;-75
2021/12/24 15:42:31;;;;;;;;;;;7.00;99.90;;;;;;5003422;28;20112;-75
2021/12/24 15:44:57;;;;;;;;;;;7.00;99.90;;;;;;5003065;28;19922;-75
2021/12/24 15:47:24;;;;;;;;;;;7.10;99.90;;;;;;5003546;28;19944;-75
2021/12/24 15:49:52;;;;;;;;;;;7.00;99.90;;;;;;5003429;28;19928;-75
2021/12/24 15:52:24;;;;;;;;;;;7.00;99.90;;;;;;5002936;28;19922;-74